Delta Virtual Airport Information Service

Frankfurt Airport

ICAO: EDDF Country: Germany
Latitude: 50.0264 Longitude: 8.54313
Latest Arrival : UAL907 (KORD-EDDF) Latest Departure : DLH462 (1) (EDDF-KMIA)


WX CaptureLIVE
Data provided by noaa.gov | Fetched at 23:58:25

METAR : EDDF 250420Z 23008KT 9999 FEW015 13/10 Q1031 NOSIG

TAF :


Runway Data for EDDF
Data provided by openaviationdata.com

Runway ID Mag Var Hdg Length Elevation Surface ILS Freq ILS Id ILS Slope
07L 0 69° 9186 ft 364 ft Concrete 111.75 IFNE 3
07R 0 69° 13101 ft 364 ft Concrete 110.95 IFSE 3
07C 0 69° 13099 ft 364 ft Concrete 110.55 IFCE 3
18 0 179° 13110 ft 364 ft Concrete -- -- --
25L 0 249° 13101 ft 364 ft Concrete 111.15 IFSW 3
25R 0 249° 9186 ft 364 ft Concrete 111.35 IFNW 3
25C 0 249° 13099 ft 364 ft Concrete 111.55 IFCW 3
36 0 359° 13110 ft 364 ft Concrete -- -- --

Frankfurt Airport, Germany
Use only for reference purposes



Not for navigational purposes.